Time;durP1;ratioP1;P1;durP2;ratioP2;P2;SDS_P1;SDS_P2;PMS_P1;PMS_P2;Temp;Humidity;BMP_temperature;BMP_pressure;BME280_temperature;BME280_humidity;BME280_pressure;Samples;Min_cycle;Max_cycle;Signal;HPM_P1;HPM_P2
2023/08/20 00:01:30;;;;;;;42.75;22.35;;;;;;;17.78;100.00;101770.06;5096093;28;20035;-88
2023/08/20 00:03:56;;;;;;;48.22;23.77;;;;;;;17.91;100.00;101767.03;5094910;28;20032;-88
2023/08/20 00:06:22;;;;;;;48.50;23.92;;;;;;;17.93;100.00;101770.53;5100186;28;20043;-87
2023/08/20 00:08:48;;;;;;;43.47;21.63;;;;;;;17.74;100.00;101771.38;5061818;28;20059;-87
2023/08/20 00:11:15;;;;;;;52.58;23.15;;;;;;;17.70;100.00;101772.69;5094089;28;20027;-88
2023/08/20 00:13:41;;;;;;;49.55;23.75;;;;;;;17.79;100.00;101781.00;5095948;28;20020;-88
2023/08/20 00:16:07;;;;;;;46.25;25.35;;;;;;;17.92;100.00;101780.75;5085362;28;20024;-87
2023/08/20 00:18:33;;;;;;;50.92;26.00;;;;;;;18.04;100.00;101775.91;5073843;28;20039;-88
2023/08/20 00:20:59;;;;;;;56.65;23.95;;;;;;;18.08;100.00;101773.72;5089642;28;20481;-88
2023/08/20 00:23:25;;;;;;;55.17;24.42;;;;;;;18.18;100.00;101769.91;5092540;28;20099;-87
2023/08/20 00:25:51;;;;;;;51.35;23.52;;;;;;;18.13;100.00;101763.91;5084643;28;20031;-88
2023/08/20 00:28:17;;;;;;;48.22;24.35;;;;;;;18.06;100.00;101767.47;5091396;28;20104;-88
2023/08/20 00:30:42;;;;;;;48.22;23.20;;;;;;;17.98;100.00;101769.03;5077136;28;20081;-88
2023/08/20 00:33:07;;;;;;;45.30;21.27;;;;;;;17.97;100.00;101777.50;5079816;28;20081;-88
2023/08/20 00:35:33;;;;;;;44.90;22.38;;;;;;;17.81;100.00;101772.56;5086268;28;20173;-88
2023/08/20 00:37:58;;;;;;;43.85;19.63;;;;;;;17.82;100.00;101779.81;5055589;28;20118;-87
2023/08/20 00:40:25;;;;;;;44.72;21.60;;;;;;;17.64;100.00;101768.59;5069891;28;20123;-88
2023/08/20 00:42:51;;;;;;;50.10;22.00;;;;;;;17.59;100.00;101769.06;5072893;28;20016;-88
2023/08/20 00:45:16;;;;;;;45.22;21.80;;;;;;;17.53;100.00;101775.16;5091752;28;20040;-88
2023/08/20 00:47:43;;;;;;;50.10;22.38;;;;;;;17.52;100.00;101783.63;5068499;28;20082;-88
2023/08/20 00:50:10;;;;;;;48.05;22.35;;;;;;;17.55;100.00;101784.19;5089710;28;20023;-88
2023/08/20 00:52:37;;;;;;;39.45;20.58;;;;;;;17.59;100.00;101787.53;5089931;28;20161;-88
2023/08/20 00:55:09;;;;;;;40.63;20.52;;;;;;;17.63;100.00;101787.13;5072195;28;20028;-88
2023/08/20 00:57:36;;;;;;;33.40;21.50;;;;;;;17.56;100.00;101788.72;5087464;28;20051;-88
2023/08/20 01:00:06;;;;;;;41.95;21.23;;;;;;;17.49;100.00;101789.44;5074048;28;20298;-88
2023/08/20 01:02:32;;;;;;;43.90;21.33;;;;;;;17.39;100.00;101783.88;5072355;28;20510;-88
2023/08/20 01:04:57;;;;;;;47.95;22.33;;;;;;;17.55;100.00;101786.97;5054339;28;20023;-88
2023/08/20 01:08:00;;;;;;;44.40;21.90;;;;;;;17.55;100.00;101799.94;5068994;28;20115;-88
2023/08/20 01:10:37;;;;;;;39.17;21.20;;;;;;;17.37;100.00;101800.63;5088400;28;20089;-88
2023/08/20 01:13:04;;;;;;;39.10;21.92;;;;;;;17.34;100.00;101808.34;5075145;28;20021;-88
2023/08/20 01:15:29;;;;;;;48.53;23.15;;;;;;;17.35;100.00;101810.09;5072358;28;20728;-88
2023/08/20 01:17:55;;;;;;;40.90;23.73;;;;;;;17.36;100.00;101809.94;5091319;28;20107;-88
2023/08/20 01:20:26;;;;;;;48.72;23.60;;;;;;;17.33;100.00;101818.56;5082901;28;20028;-88
2023/08/20 01:23:05;;;;;;;48.80;22.73;;;;;;;17.34;100.00;101819.44;5070635;28;20086;-88
2023/08/20 01:26:12;;;;;;;44.88;23.45;;;;;;;17.47;100.00;101822.81;5082514;28;20795;-88
2023/08/20 01:28:39;;;;;;;52.22;26.05;;;;;;;17.61;100.00;101827.94;5091383;28;20051;-87
2023/08/20 01:31:05;;;;;;;52.72;25.77;;;;;;;17.72;100.00;101829.69;5074303;28;20050;-88
2023/08/20 01:33:31;;;;;;;54.53;25.58;;;;;;;17.76;100.00;101845.00;5088776;28;20016;-88
2023/08/20 01:35:57;;;;;;;41.05;25.55;;;;;;;17.77;100.00;101838.47;5087014;28;20035;-88
2023/08/20 01:38:23;;;;;;;56.03;27.08;;;;;;;17.89;100.00;101846.63;5055043;28;20028;-88
2023/08/20 01:40:49;;;;;;;42.75;25.48;;;;;;;17.94;100.00;101841.56;5090591;28;20038;-87
2023/08/20 01:43:16;;;;;;;60.83;28.50;;;;;;;17.97;100.00;101836.59;5088880;28;20389;-88
2023/08/20 01:45:42;;;;;;;44.15;25.67;;;;;;;17.93;100.00;101829.59;5087794;28;20036;-88
2023/08/20 01:48:07;;;;;;;53.53;25.60;;;;;;;17.89;100.00;101825.38;5074720;28;20047;-88
2023/08/20 01:50:34;;;;;;;43.63;25.50;;;;;;;17.84;100.00;101833.22;5087446;28;20435;-88
2023/08/20 01:53:00;;;;;;;42.75;23.92;;;;;;;17.81;100.00;101830.72;5089098;28;20047;-88
2023/08/20 01:55:25;;;;;;;43.22;25.88;;;;;;;17.73;100.00;101834.22;5075095;28;20119;-88
2023/08/20 01:57:51;;;;;;;48.80;26.50;;;;;;;17.73;100.00;101834.22;5089922;28;20124;-88
2023/08/20 02:00:16;;;;;;;50.00;24.63;;;;;;;17.75;100.00;101846.03;5054187;28;20070;-89
2023/08/20 02:02:42;;;;;;;47.25;25.38;;;;;;;17.87;100.00;101849.56;5090506;28;20055;-88
2023/08/20 02:05:07;;;;;;;42.38;24.92;;;;;;;17.87;100.00;101845.88;5084580;28;20036;-88
2023/08/20 02:07:33;;;;;;;52.60;27.25;;;;;;;17.97;100.00;101846.78;5090033;28;20546;-88
2023/08/20 02:09:59;;;;;;;55.78;26.88;;;;;;;18.00;100.00;101844.63;5069107;28;20539;-88
2023/08/20 02:12:26;;;;;;;54.95;26.70;;;;;;;18.05;100.00;101846.94;5091699;28;20024;-88
2023/08/20 02:14:52;;;;;;;56.42;25.52;;;;;;;18.09;100.00;101842.88;5087998;28;20032;-88
2023/08/20 02:17:19;;;;;;;52.50;25.05;;;;;;;18.01;100.00;101842.72;5083712;28;20039;-88
2023/08/20 02:19:44;;;;;;;42.88;24.15;;;;;;;18.01;100.00;101842.72;5089096;28;20039;-82
2023/08/20 02:22:10;;;;;;;45.13;22.17;;;;;;;18.00;100.00;101847.41;5084491;28;20036;-82
2023/08/20 02:24:36;;;;;;;44.72;24.63;;;;;;;18.00;100.00;101855.72;5069809;28;20115;-82
2023/08/20 02:27:03;;;;;;;52.70;25.95;;;;;;;17.97;100.00;101855.09;5068891;28;20075;-83
2023/08/20 02:29:28;;;;;;;53.17;25.35;;;;;;;17.96;100.00;101862.53;5052463;28;20055;-82
2023/08/20 02:31:54;;;;;;;55.95;25.05;;;;;;;18.02;100.00;101863.88;5081153;28;20028;-83
2023/08/20 02:34:20;;;;;;;47.17;25.83;;;;;;;17.96;100.00;101867.22;5069921;28;20508;-82
2023/08/20 02:36:48;;;;;;;53.47;27.48;;;;;;;17.97;100.00;101864.31;5067636;28;20043;-83
2023/08/20 02:39:14;;;;;;;51.03;26.10;;;;;;;18.03;100.00;101867.53;5086730;28;20386;-83
2023/08/20 02:41:39;;;;;;;66.15;28.15;;;;;;;18.11;100.00;101868.53;5084983;28;20099;-83
2023/08/20 02:44:04;;;;;;;53.70;28.73;;;;;;;18.18;100.00;101868.81;5048932;28;20028;-83
2023/08/20 02:46:30;;;;;;;54.80;30.10;;;;;;;18.23;100.00;101854.53;5047563;28;20570;-83
2023/08/20 02:48:55;;;;;;;62.83;29.67;;;;;;;18.26;100.00;101868.97;5079333;28;20012;-83
2023/08/20 02:51:21;;;;;;;59.95;28.92;;;;;;;18.23;100.00;101849.84;5066739;28;20066;-83
2023/08/20 02:53:48;;;;;;;41.55;25.98;;;;;;;18.26;100.00;101848.69;5086906;28;20069;-83
2023/08/20 02:56:13;;;;;;;48.72;27.35;;;;;;;18.17;100.00;101847.69;5085322;28;20059;-82
2023/08/20 02:58:39;;;;;;;56.55;27.73;;;;;;;18.16;100.00;101852.31;5088592;28;20351;-83
2023/08/20 03:01:06;;;;;;;62.22;28.33;;;;;;;18.11;100.00;101849.13;5061599;28;20573;-82
2023/08/20 03:03:32;;;;;;;48.38;27.50;;;;;;;18.04;100.00;101853.50;5088678;28;20501;-82
2023/08/20 03:05:57;;;;;;;50.03;25.77;;;;;;;17.88;100.00;101844.91;5089132;28;20031;-82
2023/08/20 03:08:23;;;;;;;57.22;27.95;;;;;;;17.96;100.00;101848.69;5070729;28;20047;-82
2023/08/20 03:10:48;;;;;;;60.65;28.35;;;;;;;18.02;100.00;101847.25;5091909;28;20380;-83
2023/08/20 03:13:14;;;;;;;58.05;27.23;;;;;;;18.10;100.00;101840.94;5096632;28;20102;-83
2023/08/20 03:15:39;;;;;;;61.50;29.23;;;;;;;18.06;100.00;101845.91;5093794;28;20391;-83
2023/08/20 03:18:06;;;;;;;56.38;29.00;;;;;;;18.00;100.00;101843.72;5088843;28;20474;-83
2023/08/20 03:20:31;;;;;;;43.13;25.73;;;;;;;18.03;100.00;101835.13;5075220;28;20029;-82
2023/08/20 03:22:57;;;;;;;53.70;28.35;;;;;;;17.88;100.00;101829.16;5088955;28;20028;-83
2023/08/20 03:25:23;;;;;;;60.33;26.90;;;;;;;17.78;100.00;101837.41;5083904;28;20502;-83
2023/08/20 03:27:50;;;;;;;55.55;28.73;;;;;;;17.76;100.00;101839.47;5068333;28;20032;-82
2023/08/20 03:30:15;;;;;;;59.13;29.00;;;;;;;17.73;100.00;101834.22;5093822;28;20053;-89
2023/08/20 03:32:42;;;;;;;60.00;27.60;;;;;;;17.64;100.00;101838.72;5084238;28;20024;-88
2023/08/20 03:35:10;;;;;;;52.63;26.95;;;;;;;17.59;100.00;101832.75;5090904;28;20059;-88
2023/08/20 03:37:35;;;;;;;55.20;28.90;;;;;;;17.66;100.00;101837.69;5060964;28;20089;-88
2023/08/20 03:40:00;;;;;;;54.58;27.88;;;;;;;17.52;100.00;101828.78;5059978;28;20028;-88
2023/08/20 03:42:26;;;;;;;49.35;28.00;;;;;;;17.54;100.00;101836.97;5084517;28;20028;-88
2023/08/20 03:44:51;;;;;;;55.78;28.58;;;;;;;17.45;100.00;101830.38;5067964;28;20032;-88
2023/08/20 03:47:20;;;;;;;57.63;27.40;;;;;;;17.36;100.00;101831.22;5089358;28;20077;-88
2023/08/20 03:49:46;;;;;;;47.13;27.20;;;;;;;17.36;100.00;101832.09;5074065;28;20161;-88
2023/08/20 03:52:12;;;;;;;47.35;24.58;;;;;;;17.33;100.00;101829.63;5075087;28;20874;-88
2023/08/20 03:54:37;;;;;;;51.35;25.45;;;;;;;17.21;100.00;101836.28;5093184;28;20123;-88
2023/08/20 03:57:03;;;;;;;46.38;25.50;;;;;;;17.15;100.00;101834.09;5059411;28;20051;-87
2023/08/20 03:59:29;;;;;;;48.25;26.77;;;;;;;17.12;100.00;101839.88;5063102;28;20122;-88
2023/08/20 04:01:55;;;;;;;45.00;27.02;;;;;;;17.08;100.00;101854.00;5093051;28;20043;-88
2023/08/20 04:04:21;;;;;;;47.53;26.67;;;;;;;17.11;100.00;101847.31;5057481;28;20032;-87
2023/08/20 04:06:46;;;;;;;52.60;26.58;;;;;;;17.20;100.00;101854.81;5089662;28;20028;-86
2023/08/20 04:09:12;;;;;;;65.40;28.00;;;;;;;17.24;100.00;101850.72;5093724;28;20035;-87
2023/08/20 04:11:37;;;;;;;52.95;26.55;;;;;;;17.25;100.00;101851.63;5077610;28;20054;-87
2023/08/20 04:14:03;;;;;;;51.53;26.23;;;;;;;17.25;100.00;101846.94;5094399;28;20034;-87
2023/08/20 04:16:29;;;;;;;50.50;25.90;;;;;;;17.17;100.00;101848.69;5094706;28;20028;-87
2023/08/20 04:18:56;;;;;;;57.55;25.13;;;;;;;17.16;100.00;101846.91;5092009;28;20016;-87
2023/08/20 04:21:21;;;;;;;48.20;24.75;;;;;;;17.07;100.00;101841.19;5073164;28;20039;-88
2023/08/20 04:23:47;;;;;;;53.83;26.48;;;;;;;17.09;100.00;101847.47;5054575;28;20020;-87
2023/08/20 04:26:12;;;;;;;65.32;30.17;;;;;;;17.04;100.00;101847.00;5090682;28;20101;-88
2023/08/20 04:28:38;;;;;;;52.28;27.55;;;;;;;17.02;100.00;101854.59;5076862;28;20031;-88
2023/08/20 04:31:03;;;;;;;56.92;27.52;;;;;;;16.88;100.00;101846.66;5076798;28;20060;-88
2023/08/20 04:33:29;;;;;;;51.83;26.92;;;;;;;16.87;100.00;101848.56;5091408;28;20032;-88
2023/08/20 04:35:54;;;;;;;60.97;28.00;;;;;;;16.85;100.00;101850.56;5076470;28;20032;-87
2023/08/20 04:38:22;;;;;;;57.28;29.17;;;;;;;16.81;100.00;101853.72;5092057;28;20044;-87
2023/08/20 04:40:48;;;;;;;53.45;29.23;;;;;;;16.87;100.00;101867.91;5071268;28;20028;-87
2023/08/20 04:43:14;;;;;;;51.28;28.95;;;;;;;16.86;100.00;101866.16;5074142;28;20556;-88
2023/08/20 04:45:41;;;;;;;59.88;29.23;;;;;;;16.83;100.00;101862.75;5094000;28;20039;-87
2023/08/20 04:48:07;;;;;;;61.58;29.90;;;;;;;16.84;100.00;101856.19;5094672;28;20028;-87
2023/08/20 04:50:32;;;;;;;61.55;29.52;;;;;;;16.86;100.00;101865.28;5097330;28;20028;-88
2023/08/20 04:53:00;;;;;;;61.35;30.40;;;;;;;16.83;100.00;101863.63;5093151;28;20023;-87
2023/08/20 04:55:27;;;;;;;63.38;30.50;;;;;;;16.92;100.00;101867.47;5086024;28;20031;-87
2023/08/20 04:57:53;;;;;;;54.10;28.13;;;;;;;16.91;100.00;101871.28;5076421;28;20167;-88
2023/08/20 05:00:19;;;;;;;64.47;29.38;;;;;;;16.90;100.00;101866.75;5090450;28;20118;-88
2023/08/20 05:02:45;;;;;;;56.70;30.38;;;;;;;16.91;100.00;101874.03;5077214;28;20032;-89
2023/08/20 05:05:11;;;;;;;53.67;28.52;;;;;;;16.92;100.00;101875.78;5073212;28;20052;-90
2023/08/20 05:07:37;;;;;;;61.10;29.55;;;;;;;16.94;100.00;101875.63;5088107;28;20055;-87
2023/08/20 05:10:03;;;;;;;53.75;30.23;;;;;;;16.97;100.00;101878.13;5089313;28;20126;-87
2023/08/20 05:12:28;;;;;;;50.08;26.73;;;;;;;17.02;100.00;101871.19;5072058;28;20035;-86
2023/08/20 05:14:54;;;;;;;50.78;28.90;;;;;;;17.06;100.00;101875.41;5090294;28;20044;-86
2023/08/20 05:17:19;;;;;;;54.75;28.80;;;;;;;17.06;100.00;101886.47;5071499;28;20048;-86
2023/08/20 05:19:45;;;;;;;60.33;30.08;;;;;;;17.06;100.00;101880.94;5090455;28;20034;-86
2023/08/20 05:22:11;;;;;;;58.65;29.88;;;;;;;17.04;100.00;101879.34;5061374;28;20036;-86
2023/08/20 05:24:38;;;;;;;55.38;30.63;;;;;;;17.12;100.00;101890.59;5068969;28;20056;-84
2023/08/20 05:27:15;;;;;;;60.65;30.80;;;;;;;17.23;100.00;101886.84;5083806;28;20038;-85
2023/08/20 05:29:41;;;;;;;66.25;32.78;;;;;;;17.33;100.00;101886.88;5080718;28;20056;-85
2023/08/20 05:32:08;;;;;;;68.30;32.45;;;;;;;17.38;100.00;101891.00;5065646;28;20048;-86
2023/08/20 05:34:35;;;;;;;69.40;34.58;;;;;;;17.49;100.00;101890.00;5072706;28;20621;-86
2023/08/20 05:37:00;;;;;;;62.95;32.50;;;;;;;17.62;100.00;101892.50;5090151;28;20020;-87
2023/08/20 05:39:28;;;;;;;67.53;33.05;;;;;;;17.64;100.00;101894.13;5088735;28;20504;-86
2023/08/20 05:41:56;;;;;;;54.38;32.30;;;;;;;17.62;100.00;101898.03;5070420;28;20032;-86
2023/08/20 05:44:21;;;;;;;54.40;30.30;;;;;;;17.70;100.00;101889.03;5060710;28;20037;-89
2023/08/20 05:46:48;;;;;;;53.15;28.65;;;;;;;17.85;100.00;101895.03;5085805;28;20483;-88
2023/08/20 05:49:15;;;;;;;60.67;28.25;;;;;;;18.07;100.00;101893.91;5084864;28;20066;-86
2023/08/20 05:51:42;;;;;;;57.28;24.67;;;;;;;18.34;100.00;101888.50;5086815;28;20039;-91
2023/08/20 05:54:08;;;;;;;55.75;28.92;;;;;;;18.33;100.00;101894.19;5076043;28;20035;-87
2023/08/20 05:56:34;;;;;;;60.13;28.05;;;;;;;18.19;100.00;101896.41;5072841;28;20036;-90
2023/08/20 05:59:00;;;;;;;51.35;27.60;;;;;;;18.30;100.00;101888.94;5068776;28;20119;-88
2023/08/20 06:01:28;;;;;;;57.05;26.65;;;;;;;18.67;100.00;101885.41;5067921;28;20051;-89
2023/08/20 06:03:53;;;;;;;47.50;25.20;;;;;;;18.96;100.00;101887.28;5071374;28;20136;-91
2023/08/20 06:06:19;;;;;;;48.03;23.13;;;;;;;19.31;100.00;101871.75;5075978;28;20099;-87
2023/08/20 06:08:45;;;;;;;43.85;23.33;;;;;;;19.47;100.00;101878.38;5091055;28;21764;-88
2023/08/20 06:11:11;;;;;;;41.70;22.52;;;;;;;19.42;100.00;101889.09;5062347;28;20044;-89
2023/08/20 06:13:38;;;;;;;60.25;24.88;;;;;;;19.53;100.00;101893.59;5077264;28;20032;-90
2023/08/20 06:16:03;;;;;;;44.60;22.35;;;;;;;19.95;100.00;101890.25;5095172;28;20024;-94
2023/08/20 06:18:29;;;;;;;42.08;22.83;;;;;;;20.10;100.00;101895.25;5111956;28;20016;-91
2023/08/20 06:20:57;;;;;;;42.38;22.67;;;;;;;20.18;100.00;101887.91;5098894;28;20032;-89
2023/08/20 06:23:23;;;;;;;43.60;22.80;;;;;;;20.19;100.00;101889.63;5094401;28;20097;-87
2023/08/20 06:25:50;;;;;;;42.55;22.42;;;;;;;20.64;100.00;101882.19;5063465;28;20503;-91
2023/08/20 06:28:16;;;;;;;40.00;19.13;;;;;;;21.05;100.00;101874.13;5090358;28;20086;-91
2023/08/20 06:30:42;;;;;;;40.30;21.90;;;;;;;20.87;100.00;101884.44;5070797;28;20056;-90
2023/08/20 06:33:08;;;;;;;46.55;19.73;;;;;;;21.17;100.00;101876.59;5080656;28;20047;-91
2023/08/20 06:35:34;;;;;;;42.78;20.60;;;;;;;21.06;100.00;101880.56;5091915;28;20126;-89
2023/08/20 06:38:00;;;;;;;42.65;19.67;;;;;;;20.99;100.00;101879.47;5089781;28;20169;-87
2023/08/20 06:40:25;;;;;;;30.83;17.65;;;;;;;21.13;100.00;101884.44;5050828;28;20067;-85
2023/08/20 06:42:52;;;;;;;31.63;16.58;;;;;;;21.69;100.00;101893.22;5053900;28;20146;-89
2023/08/20 06:45:17;;;;;;;30.98;14.32;;;;;;;21.72;100.00;101890.09;5058924;28;20038;-86
2023/08/20 06:47:43;;;;;;;37.67;15.50;;;;;;;21.52;100.00;101892.31;5051789;28;20024;-87
2023/08/20 06:50:09;;;;;;;33.97;13.90;;;;;;;21.40;100.00;101902.84;5067847;28;20036;-87
2023/08/20 06:52:34;;;;;;;30.17;14.23;;;;;;;21.60;100.00;101905.41;5081107;28;20028;-87
2023/08/20 06:55:01;;;;;;;27.98;12.77;;;;;;;21.78;100.00;101900.59;5070348;28;20028;-86
2023/08/20 06:57:27;;;;;;;32.10;12.13;;;;;;;21.77;100.00;101909.13;5089458;28;20035;-87
2023/08/20 06:59:53;;;;;;;31.02;10.95;;;;;;;21.71;100.00;101907.00;5087089;28;20028;-87
2023/08/20 07:02:19;;;;;;;28.63;12.18;;;;;;;21.56;100.00;101898.41;5070350;28;20902;-88
2023/08/20 07:04:45;;;;;;;27.27;11.57;;;;;;;21.80;100.00;101909.63;5053709;28;20068;-87
2023/08/20 07:07:12;;;;;;;31.92;11.25;;;;;;;22.02;100.00;101898.88;5082326;28;20040;-88
2023/08/20 07:09:39;;;;;;;22.58;10.57;;;;;;;22.03;100.00;101903.44;5082948;28;20051;-87
2023/08/20 07:12:05;;;;;;;30.58;11.75;;;;;;;22.70;100.00;101916.41;5073088;28;20035;-87
2023/08/20 07:14:30;;;;;;;27.25;11.65;;;;;;;22.99;100.00;101913.06;5050058;28;20032;-85
2023/08/20 07:16:55;;;;;;;30.85;11.20;;;;;;;22.36;100.00;101923.91;5081109;28;20032;-84
2023/08/20 07:19:21;;;;;;;24.58;11.50;;;;;;;22.81;100.00;101910.47;5062717;28;20033;-84
2023/08/20 07:21:48;;;;;;;28.42;9.93;;;;;;;22.73;100.00;101913.28;5085799;28;20031;-84
2023/08/20 07:24:13;;;;;;;25.88;9.15;;;;;;;23.51;100.00;101913.63;5054101;28;20028;-84
2023/08/20 07:26:40;;;;;;;23.73;9.32;;;;;;;23.52;100.00;101919.03;5062691;28;20035;-84
2023/08/20 07:29:07;;;;;;;24.15;9.93;;;;;;;24.03;100.00;101915.81;5085461;28;20039;-84
2023/08/20 07:31:34;;;;;;;30.25;10.50;;;;;;;24.51;100.00;101924.03;5067706;28;20497;-84
2023/08/20 07:34:04;;;;;;;29.52;9.98;;;;;;;24.83;100.00;101922.91;5069905;28;20112;-83
2023/08/20 07:36:31;;;;;;;23.27;9.50;;;;;;;24.89;100.00;101924.06;5082821;28;20020;-84
2023/08/20 07:38:59;;;;;;;27.38;8.68;;;;;;;24.64;100.00;101924.31;5081608;28;20028;-84
2023/08/20 07:41:25;;;;;;;19.55;6.75;;;;;;;25.29;100.00;101928.41;5079195;28;20024;-83
2023/08/20 07:43:50;;;;;;;23.27;4.85;;;;;;;25.09;100.00;101919.69;5089413;28;20055;-84
2023/08/20 07:46:16;;;;;;;21.67;4.07;;;;;;;24.89;100.00;101922.16;5081204;28;20133;-85
2023/08/20 07:48:42;;;;;;;26.67;5.25;;;;;;;24.43;100.00;101918.50;5055266;28;20028;-85
2023/08/20 07:51:09;;;;;;;33.25;4.15;;;;;;;24.43;100.00;101919.38;5069541;28;20025;-85
2023/08/20 07:53:35;;;;;;;24.48;4.50;;;;;;;24.95;100.00;101909.31;5073286;28;20395;-85
2023/08/20 07:56:01;;;;;;;15.05;3.85;;;;;;;24.59;100.00;101919.28;5087062;28;20020;-85
2023/08/20 07:58:28;;;;;;;15.77;4.30;;;;;;;24.81;100.00;101918.56;5056643;28;20027;-85
2023/08/20 08:00:53;;;;;;;18.73;4.05;;;;;;;25.39;100.00;101919.72;5076599;28;20099;-85
2023/08/20 08:03:20;;;;;;;21.45;3.72;;;;;;;24.66;100.00;101925.00;5058462;28;20505;-85
2023/08/20 08:05:52;;;;;;;19.10;3.13;;;;;;;25.28;100.00;101926.66;5073339;28;20032;-84
2023/08/20 08:08:20;;;;;;;26.10;3.63;;;;;;;24.21;100.00;101924.78;5073665;28;20028;-85
2023/08/20 08:10:46;;;;;;;20.73;4.03;;;;;;;24.31;100.00;101923.69;5058018;28;20035;-85
2023/08/20 08:13:16;;;;;;;20.05;2.92;;;;;;;25.42;100.00;101930.56;5086616;28;20024;-84
2023/08/20 08:15:41;;;;;;;21.15;3.08;;;;;;;25.26;100.00;101927.91;5085374;28;20061;-85
2023/08/20 08:18:07;;;;;;;15.23;2.75;;;;;;;25.49;100.00;101939.06;5086483;28;20073;-85
2023/08/20 08:20:34;;;;;;;15.07;3.25;;;;;;;25.63;100.00;101929.75;5086969;28;20055;-87
2023/08/20 08:23:00;;;;;;;22.33;3.58;;;;;;;25.48;100.00;101942.91;5087312;28;20509;-85
2023/08/20 08:25:26;;;;;;;23.05;3.95;;;;;;;25.46;99.92;101940.28;5085183;28;20098;-86
2023/08/20 08:27:51;;;;;;;23.02;4.32;;;;;;;26.15;98.04;101944.66;5087552;28;20028;-85
2023/08/20 08:30:17;;;;;;;14.93;4.65;;;;;;;25.56;100.00;101944.75;5073458;28;20056;-85
2023/08/20 08:32:42;;;;;;;21.80;4.75;;;;;;;25.57;100.00;101946.50;5090010;28;20031;-85
2023/08/20 08:35:08;;;;;;;19.70;4.97;;;;;;;25.67;100.00;101947.94;5056556;28;20031;-85
2023/08/20 08:37:34;;;;;;;20.77;4.40;;;;;;;25.55;100.00;101948.63;5072887;28;20024;-84
2023/08/20 08:39:59;;;;;;;21.25;4.97;;;;;;;26.73;96.92;101953.09;5073599;28;20127;-84
2023/08/20 08:42:25;;;;;;;15.90;4.78;;;;;;;26.32;98.64;101950.06;5084780;28;20064;-85
2023/08/20 08:44:51;;;;;;;18.55;3.80;;;;;;;26.66;95.70;101956.91;5087191;28;20036;-84
2023/08/20 08:47:18;;;;;;;17.30;4.32;;;;;;;26.72;96.40;101956.09;5084562;28;20051;-86
2023/08/20 08:49:46;;;;;;;21.95;4.13;;;;;;;26.21;100.00;101954.25;5089305;28;20035;-84
2023/08/20 08:52:12;;;;;;;19.83;4.22;;;;;;;26.94;94.18;101956.94;5085380;28;20032;-86
2023/08/20 08:54:38;;;;;;;23.30;4.60;;;;;;;26.65;93.39;101960.81;5085123;28;20056;-85
2023/08/20 08:57:04;;;;;;;14.65;4.47;;;;;;;26.64;95.44;101945.88;5086827;28;20132;-83
2023/08/20 08:59:30;;;;;;;13.25;4.55;;;;;;;26.78;94.34;101961.78;5087629;28;20064;-83
2023/08/20 09:01:56;;;;;;;21.50;5.38;;;;;;;26.68;96.63;101955.63;5087111;28;20090;-82
2023/08/20 09:04:22;;;;;;;31.65;6.00;;;;;;;26.68;96.70;101957.56;5088714;28;20513;-85
2023/08/20 09:06:53;;;;;;;22.30;4.97;;;;;;;27.01;96.46;101962.63;5080617;28;20107;-84
2023/08/20 09:09:20;;;;;;;15.32;4.80;;;;;;;27.26;95.55;101961.06;5089757;28;20032;-83
2023/08/20 09:11:46;;;;;;;22.40;6.07;;;;;;;27.50;91.87;101959.75;5082661;28;20028;-85
2023/08/20 09:14:29;;;;;;;20.83;5.50;;;;;;;27.11;96.13;101968.75;5073817;28;20063;-85
2023/08/20 09:16:59;;;;;;;24.13;4.90;;;;;;;27.46;91.90;101961.22;5082155;28;20109;-85
2023/08/20 09:19:28;;;;;;;21.00;5.18;;;;;;;27.45;90.31;101967.94;5083773;28;20453;-88
2023/08/20 09:21:55;;;;;;;17.35;5.10;;;;;;;27.64;92.90;101955.06;5099931;28;20087;-89
2023/08/20 09:24:43;;;;;;;26.70;5.85;;;;;;;28.20;85.96;101954.03;5088919;28;20035;-89
2023/08/20 09:27:09;;;;;;;18.48;4.70;;;;;;;28.14;89.09;101956.81;5099388;28;20043;-88
2023/08/20 09:29:48;;;;;;;18.80;5.50;;;;;;;27.65;90.22;101956.81;5092428;28;20086;-89
2023/08/20 09:32:24;;;;;;;19.08;5.63;;;;;;;27.07;90.86;101956.16;5091076;28;20032;-91
2023/08/20 09:34:51;;;;;;;15.68;4.45;;;;;;;27.27;93.91;101956.31;5101203;28;20020;-91
2023/08/20 09:37:19;;;;;;;13.50;3.47;;;;;;;26.97;89.26;101959.34;5092903;28;20091;-89
2023/08/20 09:39:44;;;;;;;12.38;3.13;;;;;;;27.42;87.22;101957.09;5086063;28;20050;-89
2023/08/20 09:42:11;;;;;;;16.50;3.30;;;;;;;27.86;85.58;101952.16;5083154;28;20028;-89
2023/08/20 09:44:40;;;;;;;17.08;4.90;;;;;;;27.40;86.92;101958.38;5087261;28;20031;-89
2023/08/20 09:47:08;;;;;;;18.05;3.70;;;;;;;27.36;87.41;101954.25;5085592;28;20434;-90
2023/08/20 09:49:40;;;;;;;13.90;3.45;;;;;;;27.49;87.72;101952.38;5087703;28;20035;-89
2023/08/20 09:52:10;;;;;;;22.63;4.53;;;;;;;27.79;84.10;101949.28;5084530;28;20089;-88
2023/08/20 09:54:53;;;;;;;11.05;3.33;;;;;;;27.76;82.54;101952.53;5084432;28;20050;-89
2023/08/20 09:57:40;;;;;;;9.80;2.65;;;;;;;28.21;77.76;101952.94;5083914;28;20020;-89
2023/08/20 10:00:12;;;;;;;16.65;3.70;;;;;;;28.09;82.41;101954.66;5079234;28;20505;-89
2023/08/20 10:02:38;;;;;;;10.27;3.40;;;;;;;28.08;78.11;101958.53;5086325;28;20035;-89
2023/08/20 10:05:07;;;;;;;11.80;3.53;;;;;;;28.48;76.00;101961.44;5071664;28;20128;-89
2023/08/20 10:07:35;;;;;;;7.13;2.10;;;;;;;29.16;69.66;101963.25;5092983;28;20082;-88
2023/08/20 10:10:03;;;;;;;10.45;2.50;;;;;;;28.60;75.01;101962.59;5089296;28;20149;-85
2023/08/20 10:12:31;;;;;;;17.38;2.22;;;;;;;28.62;71.95;101956.75;5084980;28;20039;-85
2023/08/20 10:14:58;;;;;;;7.80;2.35;;;;;;;28.70;71.69;101958.50;5068085;28;20039;-85
2023/08/20 10:17:24;;;;;;;7.85;2.25;;;;;;;28.41;70.07;101957.75;5080563;28;20016;-85
2023/08/20 10:19:53;;;;;;;13.68;2.58;;;;;;;28.52;68.23;101948.69;5083802;28;20034;-85
2023/08/20 10:22:19;;;;;;;13.82;2.90;;;;;;;28.44;68.00;101956.47;5092515;28;20032;-85
2023/08/20 10:24:50;;;;;;;8.45;2.60;;;;;;;28.78;70.78;101956.34;5054634;28;20114;-85
2023/08/20 10:27:32;;;;;;;7.80;2.53;;;;;;;28.19;73.43;101952.31;5088002;28;20028;-85
2023/08/20 10:29:59;;;;;;;12.98;2.83;;;;;;;28.68;74.95;101947.44;5085918;28;20109;-86
2023/08/20 10:32:46;;;;;;;14.70;2.35;;;;;;;28.75;71.54;101955.91;5054972;28;20036;-85
2023/08/20 10:35:16;;;;;;;10.98;1.80;;;;;;;28.40;67.94;101953.19;5091638;28;20028;-86
2023/08/20 10:38:04;;;;;;;11.20;2.38;;;;;;;28.86;66.65;101958.06;5086182;28;20490;-85
2023/08/20 10:40:58;;;;;;;10.30;2.42;;;;;;;28.97;69.62;101948.06;5075639;28;20036;-85
2023/08/20 10:43:30;;;;;;;9.18;2.42;;;;;;;28.70;66.69;101959.38;5092434;28;20035;-85
2023/08/20 10:46:06;;;;;;;6.35;1.70;;;;;;;28.49;68.93;101959.53;5083803;28;20048;-85
2023/08/20 10:48:34;;;;;;;8.63;1.80;;;;;;;28.57;63.81;101956.53;5077860;28;20124;-85
2023/08/20 10:51:12;;;;;;;7.57;1.75;;;;;;;28.20;65.41;101948.41;5082118;28;20035;-85
2023/08/20 10:53:38;;;;;;;13.07;2.20;;;;;;;28.27;66.12;101953.16;5082556;28;20052;-85
2023/08/20 10:56:15;;;;;;;11.70;1.60;;;;;;;28.95;63.91;101961.53;5082233;28;20082;-85
2023/08/20 10:58:43;;;;;;;8.98;1.58;;;;;;;27.99;64.83;101959.78;5083075;28;20042;-85
2023/08/20 11:01:20;;;;;;;7.47;2.05;;;;;;;27.85;64.87;101967.28;5081858;28;20043;-86
2023/08/20 11:03:46;;;;;;;14.23;2.10;;;;;;;27.60;68.75;101961.34;5094442;28;20078;-85
2023/08/20 11:06:12;;;;;;;7.93;1.73;;;;;;;28.11;66.17;101963.75;5077396;28;20036;-84
2023/08/20 11:08:39;;;;;;;9.10;2.17;;;;;;;28.11;66.17;101960.94;5084885;28;20103;-85